Terminal Aerodrome Forecast
Issued by NWS

Home | Current Version | Previous Version | Text Only | Print | Product List | Glossary On
Versions: 1 2 3 4 5 6 7 8 9 10 11 12 13 14 15 16 17 18
803
FTUS42 TJSJ 142339
TAFJBQ
TAF
TJBQ 142339Z 1500/1524 VRB06KT P6SM VCSH SCT025
      TEMPO 1500/1502 VRB10KT 5SM -SHRA SCT025 BKN035
     FM151400 09015KT P6SM SCT025
     FM151700 10017KT P6SM VCSH SCT025 BKN040
     FM152300 12010KT P6SM SCT025
      AMD NOT SKED 1502/1511=

USA.gov is the U.S. government's official web portal to all federal, state and local government web resources and services.